createdAt,value
2022-08-21T00:01:07.316Z,100.00
2022-08-21T00:03:36.338Z,100.00
2022-08-21T00:06:05.289Z,100.00
2022-08-21T00:08:33.131Z,100.00
2022-08-21T00:11:02.686Z,100.00
2022-08-21T00:13:30.521Z,100.00
2022-08-21T00:15:59.027Z,100.00
2022-08-21T00:18:28.060Z,100.00
2022-08-21T00:20:56.693Z,100.00
2022-08-21T00:23:24.677Z,100.00
2022-08-21T00:25:52.521Z,100.00
2022-08-21T00:28:21.741Z,100.00
2022-08-21T00:30:49.580Z,100.00
2022-08-21T00:33:17.372Z,100.00
2022-08-21T00:35:45.451Z,100.00
2022-08-21T00:38:13.311Z,100.00
2022-08-21T00:40:46.059Z,100.00
2022-08-21T00:43:17.291Z,100.00
2022-08-21T00:45:46.876Z,100.00
2022-08-21T00:48:15.044Z,100.00
2022-08-21T00:50:50.633Z,100.00
2022-08-21T00:53:19.179Z,100.00
2022-08-21T00:55:48.369Z,100.00
2022-08-21T00:58:18.743Z,100.00
2022-08-21T01:00:50.132Z,100.00
2022-08-21T01:03:23.828Z,100.00
2022-08-21T01:05:52.449Z,100.00
2022-08-21T01:08:21.797Z,100.00
2022-08-21T01:10:51.151Z,100.00
2022-08-21T01:13:28.428Z,100.00
2022-08-21T01:16:00.339Z,100.00
2022-08-21T01:18:29.097Z,100.00
2022-08-21T01:21:12.684Z,100.00
2022-08-21T01:23:46.921Z,100.00
2022-08-21T01:26:17.117Z,100.00
2022-08-21T01:28:51.760Z,100.00
2022-08-21T01:31:26.330Z,100.00
2022-08-21T01:33:54.583Z,100.00
2022-08-21T01:36:24.516Z,100.00
2022-08-21T01:38:52.547Z,100.00
2022-08-21T01:41:20.402Z,100.00
2022-08-21T01:43:48.285Z,100.00
2022-08-21T01:46:17.861Z,100.00
2022-08-21T01:48:45.851Z,100.00
2022-08-21T01:51:14.353Z,100.00
2022-08-21T01:53:43.652Z,100.00
2022-08-21T01:56:15.024Z,100.00
2022-08-21T01:58:44.165Z,100.00
2022-08-21T02:01:12.502Z,100.00
2022-08-21T02:03:42.033Z,100.00
2022-08-21T02:06:18.473Z,100.00
2022-08-21T02:08:48.570Z,100.00
2022-08-21T02:11:16.708Z,100.00
2022-08-21T02:13:44.558Z,100.00
2022-08-21T02:16:19.136Z,100.00
2022-08-21T02:18:47.748Z,100.00
2022-08-21T02:21:15.920Z,100.00
2022-08-21T02:23:43.838Z,100.00
2022-08-21T02:26:13.741Z,100.00
2022-08-21T02:28:41.643Z,100.00
2022-08-21T02:31:09.653Z,100.00
2022-08-21T02:33:37.531Z,100.00
2022-08-21T02:36:06.530Z,100.00
2022-08-21T02:38:38.864Z,100.00
2022-08-21T02:41:08.559Z,100.00
2022-08-21T02:43:37.821Z,100.00
2022-08-21T02:46:08.376Z,100.00
2022-08-21T02:48:37.733Z,100.00
2022-08-21T02:51:08.077Z,100.00
2022-08-21T02:53:36.365Z,100.00
2022-08-21T02:56:07.544Z,100.00
2022-08-21T02:58:39.561Z,100.00
2022-08-21T03:01:10.587Z,100.00
2022-08-21T03:03:39.315Z,100.00
2022-08-21T03:06:08.939Z,100.00
2022-08-21T03:08:36.974Z,100.00
2022-08-21T03:11:05.452Z,100.00
2022-08-21T03:13:35.847Z,100.00
2022-08-21T03:16:05.510Z,100.00
2022-08-21T03:18:38.054Z,100.00
2022-08-21T03:21:06.965Z,100.00
2022-08-21T03:23:35.015Z,100.00
2022-08-21T03:26:03.170Z,100.00
2022-08-21T03:28:30.971Z,100.00
2022-08-21T03:30:58.797Z,100.00
2022-08-21T03:33:28.563Z,100.00
2022-08-21T03:36:02.166Z,100.00
2022-08-21T03:38:32.033Z,100.00
2022-08-21T03:41:01.745Z,100.00
2022-08-21T03:43:30.932Z,100.00
2022-08-21T03:46:02.144Z,100.00
2022-08-21T03:48:31.764Z,100.00
2022-08-21T03:50:59.855Z,100.00
2022-08-21T03:53:27.863Z,100.00
2022-08-21T03:55:56.307Z,100.00
2022-08-21T03:58:26.377Z,100.00
2022-08-21T04:00:56.557Z,100.00
2022-08-21T04:03:25.152Z,100.00
2022-08-21T04:05:54.648Z,100.00
2022-08-21T04:08:22.469Z,100.00
2022-08-21T04:10:54.012Z,100.00
2022-08-21T04:13:22.738Z,100.00
2022-08-21T04:15:50.997Z,100.00
2022-08-21T04:18:19.057Z,100.00
2022-08-21T04:20:50.152Z,100.00
2022-08-21T04:23:24.013Z,100.00
2022-08-21T04:25:53.149Z,100.00
2022-08-21T04:28:21.078Z,100.00
2022-08-21T04:30:52.871Z,100.00
2022-08-21T04:33:21.321Z,100.00
2022-08-21T04:35:49.974Z,100.00
2022-08-21T04:38:19.886Z,100.00
2022-08-21T04:40:48.088Z,100.00
2022-08-21T04:43:15.985Z,100.00
2022-08-21T04:45:46.701Z,100.00
2022-08-21T04:48:16.373Z,100.00
2022-08-21T04:50:52.168Z,100.00
2022-08-21T04:53:24.875Z,100.00
2022-08-21T04:55:54.556Z,100.00
2022-08-21T04:58:24.437Z,100.00
2022-08-21T05:00:54.781Z,100.00
2022-08-21T05:03:23.502Z,100.00
2022-08-21T05:05:51.643Z,100.00
2022-08-21T05:08:24.435Z,100.00
2022-08-21T05:10:54.164Z,100.00
2022-08-21T05:13:24.965Z,100.00
2022-08-21T05:15:52.846Z,100.00
2022-08-21T05:18:20.671Z,100.00
2022-08-21T05:20:48.465Z,100.00
2022-08-21T05:23:16.640Z,100.00
2022-08-21T05:25:46.316Z,100.00
2022-08-21T05:28:14.273Z,100.00
2022-08-21T05:30:48.176Z,100.00
2022-08-21T05:33:16.112Z,100.00
2022-08-21T05:35:43.947Z,100.00
2022-08-21T05:38:16.588Z,100.00
2022-08-21T05:40:47.685Z,100.00
2022-08-21T05:43:15.776Z,100.00
2022-08-21T05:45:44.636Z,100.00
2022-08-21T05:48:15.275Z,100.00
2022-08-21T05:50:44.257Z,100.00
2022-08-21T05:53:13.135Z,100.00
2022-08-21T05:55:45.864Z,100.00
2022-08-21T05:58:17.689Z,100.00
2022-08-21T06:00:46.569Z,100.00
2022-08-21T06:03:16.509Z,100.00
2022-08-21T06:05:44.597Z,100.00
2022-08-21T06:08:12.442Z,100.00
2022-08-21T06:10:40.513Z,100.00
2022-08-21T06:13:08.382Z,100.00
2022-08-21T06:15:37.620Z,100.00
2022-08-21T06:18:05.648Z,100.00
2022-08-21T06:20:33.874Z,100.00
2022-08-21T06:23:01.900Z,100.00
2022-08-21T06:25:30.220Z,100.00
2022-08-21T06:28:03.465Z,100.00
2022-08-21T06:30:31.296Z,100.00
2022-08-21T06:33:00.968Z,100.00
2022-08-21T06:35:29.998Z,100.00
2022-08-21T06:37:58.265Z,100.00
2022-08-21T06:40:26.423Z,100.00
2022-08-21T06:42:54.674Z,100.00
2022-08-21T06:45:24.069Z,100.00
2022-08-21T06:47:51.974Z,100.00
2022-08-21T06:50:21.416Z,100.00
2022-08-21T06:52:49.313Z,100.00
2022-08-21T06:55:21.673Z,100.00
2022-08-21T06:57:50.878Z,100.00
2022-08-21T07:00:21.194Z,100.00
2022-08-21T07:02:49.072Z,100.00
2022-08-21T07:05:18.439Z,100.00
2022-08-21T07:07:48.281Z,100.00
2022-08-21T07:10:21.884Z,100.00
2022-08-21T07:12:50.791Z,100.00
2022-08-21T07:15:21.789Z,100.00
2022-08-21T07:17:49.722Z,100.00
2022-08-21T07:20:17.820Z,100.00
2022-08-21T07:22:47.072Z,100.00
2022-08-21T07:25:15.054Z,100.00
2022-08-21T07:27:42.921Z,100.00
2022-08-21T07:30:11.693Z,100.00
2022-08-21T07:32:39.574Z,100.00
2022-08-21T07:35:08.310Z,100.00
2022-08-21T07:37:36.182Z,100.00
2022-08-21T07:40:06.894Z,100.00
2022-08-21T07:42:34.822Z,100.00
2022-08-21T07:45:02.786Z,100.00
2022-08-21T07:47:41.528Z,100.00
2022-08-21T07:50:12.078Z,100.00
2022-08-21T07:52:40.960Z,100.00
2022-08-21T07:55:12.249Z,100.00
2022-08-21T07:57:40.181Z,100.00
2022-08-21T08:00:10.658Z,100.00
2022-08-21T08:02:41.691Z,100.00
2022-08-21T08:05:13.039Z,100.00
2022-08-21T08:07:41.182Z,100.00
2022-08-21T08:10:11.979Z,100.00
2022-08-21T08:12:42.119Z,100.00
2022-08-21T08:15:13.483Z,100.00
2022-08-21T08:17:41.351Z,100.00
2022-08-21T08:20:10.154Z,100.00
2022-08-21T08:22:39.935Z,100.00
2022-08-21T08:25:12.251Z,100.00
2022-08-21T08:27:40.737Z,100.00
2022-08-21T08:30:11.529Z,100.00
2022-08-21T08:32:40.601Z,100.00
2022-08-21T08:35:09.841Z,100.00
2022-08-21T08:37:41.882Z,100.00
2022-08-21T08:40:15.767Z,100.00
2022-08-21T08:42:43.702Z,100.00
2022-08-21T08:45:15.657Z,100.00
2022-08-21T08:47:47.582Z,100.00
2022-08-21T08:50:22.396Z,100.00
2022-08-21T08:52:54.451Z,100.00
2022-08-21T08:55:28.541Z,100.00
2022-08-21T08:57:57.559Z,100.00
2022-08-21T09:00:25.866Z,100.00
2022-08-21T09:02:56.428Z,100.00
2022-08-21T09:05:28.868Z,100.00
2022-08-21T09:08:22.834Z,100.00
2022-08-21T09:10:59.737Z,100.00
2022-08-21T09:13:45.801Z,100.00
2022-08-21T09:16:24.299Z,100.00
2022-08-21T09:19:01.546Z,100.00
2022-08-21T09:21:38.610Z,100.00
2022-08-21T09:24:23.596Z,100.00
2022-08-21T09:27:00.712Z,100.00
2022-08-21T09:29:33.866Z,100.00
2022-08-21T09:32:01.650Z,100.00
2022-08-21T09:34:33.407Z,100.00
2022-08-21T09:37:01.440Z,100.00
2022-08-21T09:39:32.156Z,100.00
2022-08-21T09:42:12.138Z,100.00
2022-08-21T09:44:44.374Z,100.00
2022-08-21T09:47:14.419Z,100.00
2022-08-21T09:49:44.768Z,100.00
2022-08-21T09:52:20.740Z,100.00
2022-08-21T09:54:51.351Z,100.00
2022-08-21T09:57:46.250Z,100.00
2022-08-21T10:00:21.645Z,100.00
2022-08-21T10:02:49.523Z,100.00
2022-08-21T10:05:21.361Z,100.00
2022-08-21T10:07:49.278Z,100.00
2022-08-21T10:10:19.973Z,100.00
2022-08-21T10:12:59.387Z,100.00
2022-08-21T10:15:37.702Z,100.00
2022-08-21T10:18:14.999Z,100.00
2022-08-21T10:20:46.588Z,100.00
2022-08-21T10:23:38.916Z,100.00
2022-08-21T10:26:14.540Z,100.00
2022-08-21T10:28:52.208Z,100.00
2022-08-21T10:31:26.853Z,100.00
2022-08-21T10:34:07.155Z,100.00
2022-08-21T10:36:38.468Z,100.00
2022-08-21T10:39:35.690Z,100.00
2022-08-21T10:42:29.877Z,100.00
2022-08-21T10:45:12.557Z,100.00
2022-08-21T10:47:46.831Z,100.00
2022-08-21T10:50:21.530Z,100.00
2022-08-21T10:53:11.350Z,100.00
2022-08-21T10:55:45.619Z,100.00
2022-08-21T10:58:19.179Z,100.00
2022-08-21T11:00:51.718Z,100.00
2022-08-21T11:03:26.407Z,100.00
2022-08-21T11:05:57.085Z,100.00
2022-08-21T11:08:31.084Z,100.00
2022-08-21T11:11:05.010Z,100.00
2022-08-21T11:13:42.167Z,100.00
2022-08-21T11:16:18.312Z,100.00
2022-08-21T11:18:51.255Z,100.00
2022-08-21T11:21:31.653Z,100.00
2022-08-21T11:24:05.929Z,100.00
2022-08-21T11:26:39.844Z,100.00
2022-08-21T11:29:13.715Z,100.00
2022-08-21T11:31:58.347Z,100.00
2022-08-21T11:34:41.257Z,100.00
2022-08-21T11:37:21.455Z,100.00
2022-08-21T11:40:01.755Z,100.00
2022-08-21T11:42:37.377Z,66.96
2022-08-21T11:45:20.056Z,87.73
2022-08-21T11:47:58.900Z,92.14
2022-08-21T11:50:35.657Z,96.14
2022-08-21T11:53:11.124Z,94.21
2022-08-21T11:55:43.758Z,100.00
2022-08-21T11:58:17.494Z,100.00
2022-08-21T12:00:51.032Z,100.00
2022-08-21T12:03:28.756Z,100.00
2022-08-21T12:06:00.394Z,100.00
2022-08-21T12:08:33.091Z,100.00
2022-08-21T12:11:04.994Z,100.00
2022-08-21T12:13:40.397Z,100.00
2022-08-21T12:16:13.525Z,100.00
2022-08-21T12:18:44.226Z,100.00
2022-08-21T12:21:27.079Z,100.00
2022-08-21T12:24:05.310Z,100.00
2022-08-21T12:26:35.672Z,100.00
2022-08-21T12:29:12.596Z,100.00
2022-08-21T12:31:51.416Z,100.00
2022-08-21T12:34:22.485Z,91.95
2022-08-21T12:36:56.035Z,100.00
2022-08-21T12:39:27.164Z,98.14
2022-08-21T12:42:02.048Z,98.79
2022-08-21T12:44:37.869Z,100.00
2022-08-21T12:47:08.387Z,100.00
2022-08-21T12:49:45.409Z,100.00
2022-08-21T12:52:21.539Z,100.00
2022-08-21T12:54:49.584Z,100.00
2022-08-21T12:57:23.729Z,100.00
2022-08-21T12:59:56.650Z,100.00
2022-08-21T13:02:28.438Z,100.00
2022-08-21T13:04:58.504Z,100.00
2022-08-21T13:07:30.305Z,100.00
2022-08-21T13:10:02.437Z,96.25
2022-08-21T13:12:32.532Z,85.36
2022-08-21T13:15:09.058Z,97.73
2022-08-21T13:17:40.485Z,100.00
2022-08-21T13:20:12.640Z,100.00
2022-08-21T13:22:45.018Z,100.00
2022-08-21T13:25:14.852Z,100.00
2022-08-21T13:27:43.783Z,100.00
2022-08-21T13:30:15.050Z,100.00
2022-08-21T13:32:46.269Z,100.00
2022-08-21T13:35:20.193Z,100.00
2022-08-21T13:37:50.787Z,100.00
2022-08-21T13:40:22.165Z,100.00
2022-08-21T13:42:53.312Z,100.00
2022-08-21T13:45:26.468Z,96.41
2022-08-21T13:47:56.284Z,89.86
2022-08-21T13:50:27.839Z,88.08
2022-08-21T13:53:02.770Z,87.37
2022-08-21T13:55:42.558Z,92.23
2022-08-21T13:58:11.811Z,89.41
2022-08-21T14:00:47.601Z,86.00
2022-08-21T14:03:36.180Z,88.18
2022-08-21T14:06:14.311Z,83.47
2022-08-21T14:08:44.016Z,79.32
2022-08-21T14:11:14.541Z,83.34
2022-08-21T14:13:44.761Z,83.62
2022-08-21T14:16:16.618Z,82.33
2022-08-21T14:18:49.598Z,84.13
2022-08-21T14:21:29.780Z,82.40
2022-08-21T14:24:06.309Z,87.39
2022-08-21T14:26:38.374Z,100.00
2022-08-21T14:29:10.777Z,85.18
2022-08-21T14:31:43.279Z,84.82
2022-08-21T14:34:19.813Z,82.16
2022-08-21T14:36:50.094Z,80.62
2022-08-21T14:39:18.344Z,82.13
2022-08-21T14:41:48.986Z,77.20
2022-08-21T14:44:18.244Z,77.46
2022-08-21T14:46:55.339Z,65.81
2022-08-21T14:49:27.126Z,66.12
2022-08-21T14:51:58.529Z,78.26
2022-08-21T14:54:31.112Z,75.39
2022-08-21T14:57:02.585Z,81.42
2022-08-21T14:59:31.355Z,84.08
2022-08-21T15:01:59.290Z,92.79
2022-08-21T15:04:27.250Z,96.97
2022-08-21T15:06:56.434Z,100.00
2022-08-21T15:09:25.495Z,96.58
2022-08-21T15:11:55.308Z,97.31
2022-08-21T15:14:28.110Z,91.78
2022-08-21T15:16:56.284Z,84.16
2022-08-21T15:19:24.553Z,87.52
2022-08-21T15:21:52.445Z,94.98
2022-08-21T15:24:21.629Z,99.98
2022-08-21T15:26:49.614Z,95.65
2022-08-21T15:29:22.695Z,99.56
2022-08-21T15:31:56.729Z,92.84
2022-08-21T15:34:27.358Z,95.06
2022-08-21T15:36:57.096Z,99.66
2022-08-21T15:39:31.334Z,98.55
2022-08-21T15:42:02.826Z,97.27
2022-08-21T15:44:40.582Z,93.19
2022-08-21T15:47:09.433Z,94.34
2022-08-21T15:49:37.389Z,88.32
2022-08-21T15:52:05.377Z,76.31
2022-08-21T15:54:34.568Z,80.29
2022-08-21T15:57:02.396Z,72.93
2022-08-21T15:59:34.299Z,74.42
2022-08-21T16:02:02.195Z,73.78
2022-08-21T16:04:30.420Z,76.15
2022-08-21T16:07:04.354Z,69.98
2022-08-21T16:09:37.163Z,75.67
2022-08-21T16:12:06.605Z,81.75
2022-08-21T16:14:37.305Z,70.99
2022-08-21T16:17:07.290Z,71.54
2022-08-21T16:19:35.639Z,71.18
2022-08-21T16:22:03.871Z,67.93
2022-08-21T16:24:31.764Z,71.48
2022-08-21T16:27:01.331Z,71.85
2022-08-21T16:29:35.584Z,72.44
2022-08-21T16:32:06.994Z,73.21
2022-08-21T16:34:35.109Z,71.33
2022-08-21T16:37:03.161Z,72.90
2022-08-21T16:39:31.092Z,73.17
2022-08-21T16:42:00.373Z,66.85
2022-08-21T16:44:30.121Z,67.82
2022-08-21T16:46:59.567Z,70.94
2022-08-21T16:49:27.524Z,77.60
2022-08-21T16:51:55.430Z,69.21
2022-08-21T16:54:24.061Z,67.97
2022-08-21T16:56:52.293Z,69.09
2022-08-21T16:59:24.085Z,66.59
2022-08-21T17:01:54.510Z,78.70
2022-08-21T17:04:22.499Z,82.65
2022-08-21T17:06:50.581Z,81.57
2022-08-21T17:09:18.494Z,69.40
2022-08-21T17:11:49.669Z,73.06
2022-08-21T17:14:20.720Z,71.78
2022-08-21T17:16:52.988Z,75.75
2022-08-21T17:19:22.400Z,82.16
2022-08-21T17:21:50.355Z,85.21
2022-08-21T17:24:18.303Z,87.59
2022-08-21T17:26:46.869Z,92.90
2022-08-21T17:29:16.094Z,93.02
2022-08-21T17:31:45.552Z,92.40
2022-08-21T17:34:16.822Z,99.04
2022-08-21T17:36:44.716Z,100.00
2022-08-21T17:39:13.039Z,100.00
2022-08-21T17:41:56.367Z,100.00
2022-08-21T17:44:26.766Z,100.00
2022-08-21T17:46:55.142Z,100.00
2022-08-21T17:49:25.366Z,100.00
2022-08-21T17:51:53.322Z,100.00
2022-08-21T17:54:21.402Z,100.00
2022-08-21T17:56:49.331Z,100.00
2022-08-21T17:59:17.332Z,100.00
2022-08-21T18:01:47.247Z,100.00
2022-08-21T18:04:16.280Z,100.00
2022-08-21T18:06:46.293Z,100.00
2022-08-21T18:09:14.288Z,100.00
2022-08-21T18:11:43.981Z,100.00
2022-08-21T18:14:12.727Z,100.00
2022-08-21T18:16:40.631Z,100.00
2022-08-21T18:19:15.348Z,100.00
2022-08-21T18:21:43.225Z,100.00
2022-08-21T18:24:12.808Z,100.00
2022-08-21T18:26:42.628Z,100.00
2022-08-21T18:29:13.518Z,100.00
2022-08-21T18:31:43.655Z,100.00
2022-08-21T18:34:23.082Z,100.00
2022-08-21T18:36:51.704Z,100.00
2022-08-21T18:39:37.802Z,100.00
2022-08-21T18:42:10.062Z,100.00
2022-08-21T18:44:39.146Z,100.00
2022-08-21T18:47:11.504Z,100.00
2022-08-21T18:49:40.106Z,100.00
2022-08-21T18:52:09.981Z,100.00
2022-08-21T18:54:45.323Z,100.00
2022-08-21T18:57:14.091Z,100.00
2022-08-21T18:59:43.609Z,100.00
2022-08-21T19:02:11.469Z,100.00
2022-08-21T19:04:44.784Z,100.00
2022-08-21T19:07:14.279Z,100.00
2022-08-21T19:09:52.687Z,100.00
2022-08-21T19:12:31.404Z,100.00
2022-08-21T19:15:00.123Z,100.00
2022-08-21T19:17:29.016Z,100.00
2022-08-21T19:20:01.283Z,100.00
2022-08-21T19:22:29.321Z,100.00
2022-08-21T19:24:57.230Z,100.00
2022-08-21T19:27:25.234Z,100.00
2022-08-21T19:29:54.756Z,100.00
2022-08-21T19:32:22.643Z,100.00
2022-08-21T19:34:51.122Z,100.00
2022-08-21T19:37:20.454Z,100.00
2022-08-21T19:39:50.334Z,100.00
2022-08-21T19:42:21.331Z,100.00
2022-08-21T19:44:53.036Z,100.00
2022-08-21T19:47:29.520Z,100.00
2022-08-21T19:49:59.137Z,100.00
2022-08-21T19:52:28.073Z,100.00
2022-08-21T19:54:57.417Z,100.00
2022-08-21T19:57:25.312Z,100.00
2022-08-21T19:59:53.145Z,100.00
2022-08-21T20:02:23.091Z,100.00
2022-08-21T20:07:40.420Z,100.00
2022-08-21T20:10:08.778Z,100.00
2022-08-21T20:12:38.571Z,100.00
2022-08-21T20:17:55.481Z,100.00
2022-08-21T20:20:24.975Z,100.00
2022-08-21T20:22:58.492Z,100.00
2022-08-21T20:25:30.938Z,100.00
2022-08-21T20:27:59.028Z,100.00
2022-08-21T20:30:29.504Z,100.00
2022-08-21T20:32:57.890Z,100.00
2022-08-21T20:35:27.272Z,100.00
2022-08-21T20:37:58.607Z,100.00
2022-08-21T20:40:44.776Z,100.00
2022-08-21T20:43:12.976Z,100.00
2022-08-21T20:45:41.589Z,100.00
2022-08-21T20:48:13.520Z,100.00
2022-08-21T20:50:53.384Z,100.00
2022-08-21T20:53:28.152Z,100.00
2022-08-21T20:56:16.118Z,100.00
2022-08-21T20:58:52.491Z,100.00
2022-08-21T21:01:21.102Z,100.00
2022-08-21T21:03:55.999Z,100.00
2022-08-21T21:06:29.522Z,100.00
2022-08-21T21:09:04.837Z,100.00
2022-08-21T21:11:38.286Z,100.00
2022-08-21T21:14:12.445Z,100.00
2022-08-21T21:19:40.158Z,100.00
2022-08-21T21:22:13.740Z,100.00
2022-08-21T21:24:52.113Z,100.00
2022-08-21T21:27:25.948Z,100.00
2022-08-21T21:29:59.684Z,100.00
2022-08-21T21:32:30.004Z,100.00
2022-08-21T21:34:58.034Z,100.00
2022-08-21T21:37:33.567Z,100.00
2022-08-21T21:40:18.276Z,100.00
2022-08-21T21:42:56.640Z,100.00
2022-08-21T21:45:29.393Z,100.00
2022-08-21T21:48:07.505Z,100.00
2022-08-21T21:50:50.192Z,100.00
2022-08-21T21:53:35.255Z,100.00
2022-08-21T21:56:16.592Z,100.00
2022-08-21T21:59:01.737Z,100.00
2022-08-21T22:01:42.827Z,100.00
2022-08-21T22:04:19.884Z,100.00
2022-08-21T22:06:58.932Z,100.00
2022-08-21T22:09:41.345Z,100.00
2022-08-21T22:12:25.140Z,100.00
2022-08-21T22:14:53.224Z,100.00
2022-08-21T22:17:32.632Z,100.00
2022-08-21T22:20:05.621Z,100.00
2022-08-21T22:22:34.992Z,100.00
2022-08-21T22:25:14.058Z,100.00
2022-08-21T22:27:43.644Z,100.00
2022-08-21T22:30:17.509Z,100.00
2022-08-21T22:32:49.095Z,100.00
2022-08-21T22:35:21.658Z,100.00
2022-08-21T22:37:54.149Z,100.00
2022-08-21T22:40:27.627Z,100.00
2022-08-21T22:43:01.340Z,100.00
2022-08-21T22:45:31.346Z,100.00
2022-08-21T22:48:11.187Z,100.00
2022-08-21T22:50:57.366Z,100.00
2022-08-21T22:53:31.271Z,100.00
2022-08-21T22:56:04.387Z,100.00
2022-08-21T22:58:34.821Z,100.00
2022-08-21T23:01:06.214Z,100.00
2022-08-21T23:03:42.988Z,100.00
2022-08-21T23:06:25.142Z,100.00
2022-08-21T23:08:54.545Z,100.00
2022-08-21T23:11:30.290Z,100.00
2022-08-21T23:13:59.953Z,100.00
2022-08-21T23:16:47.530Z,100.00
2022-08-21T23:19:27.177Z,100.00
2022-08-21T23:22:02.785Z,100.00
2022-08-21T23:24:50.049Z,100.00
2022-08-21T23:27:26.861Z,100.00
2022-08-21T23:30:07.381Z,100.00
2022-08-21T23:32:57.351Z,100.00
2022-08-21T23:35:48.471Z,100.00
2022-08-21T23:38:32.036Z,100.00
2022-08-21T23:41:11.238Z,100.00
2022-08-21T23:43:53.046Z,100.00
2022-08-21T23:46:46.389Z,100.00
2022-08-21T23:49:28.929Z,100.00
2022-08-21T23:52:13.128Z,100.00
2022-08-21T23:55:01.846Z,100.00
2022-08-21T23:57:45.804Z,100.00
